Villa Park, Illinois
Current Conditions -  °F | °C
As of 10:51 AM on Saturday 25 Oct 2014 (Local Time) from KORD Reporting Station
Few Clouds Few Clouds  
Wind Chill: 65°   Ceiling: Unl
Heat Index: 65°   Visibility: 10mi
Dew Point: 48°   Wind: 14mph
Humidity: 54%   Direction: 310°NW
Pressure: 29.95"   Gusts: NA
Location:  41.89°N, 87.98°W
Report Text: KORD 251551Z 31012KT 10SM FEW250 18/09 A2995 RMK AO2 SLP142 T01830089
Loading
Personal Weather Stations






























Interactive Weather Map
Tropical Storm Tracking
New forecast layout! Learn more

10-Day Weather Forecast

Advertisements
Track Severe Weather on mobile